Time;durP1;ratioP1;P1;durP2;ratioP2;P2;SDS_P1;SDS_P2;PMS_P1;PMS_P2;Temp;Humidity;BMP_temperature;BMP_pressure;BME280_temperature;BME280_humidity;BME280_pressure;Samples;Min_cycle;Max_cycle;Signal;HPM_P1;HPM_P2
2023/11/07 00:01:13;;;;;;;0.50;0.50;;;;;;;10.05;59.74;99609.69;5306982;26;25189;-88
2023/11/07 00:03:38;;;;;;;0.55;0.55;;;;;;;10.08;59.73;99611.34;5307324;26;20684;-88
2023/11/07 00:06:04;;;;;;;2.05;1.35;;;;;;;10.20;59.75;99607.50;5325899;26;20402;-87
2023/11/07 00:08:29;;;;;;;0.45;0.45;;;;;;;10.30;59.75;99611.53;5307311;26;20543;-87
2023/11/07 00:10:55;;;;;;;0.47;0.47;;;;;;;10.09;59.74;99611.28;5326006;26;20114;-89
2023/11/07 00:13:21;;;;;;;0.85;0.52;;;;;;;10.16;59.75;99615.38;5307171;26;20052;-89
2023/11/07 00:15:46;;;;;;;0.43;0.43;;;;;;;10.15;59.73;99615.44;5306416;26;20136;-89
2023/11/07 00:18:18;;;;;;;0.65;0.60;;;;;;;10.19;59.74;99608.41;5307090;26;21793;-89
2023/11/07 00:20:43;;;;;;;1.70;0.95;;;;;;;10.11;59.74;99613.84;5307814;26;20705;-88
2023/11/07 00:23:09;;;;;;;4.90;2.45;;;;;;;10.08;59.73;99614.78;5326705;26;20155;-89
2023/11/07 00:25:34;;;;;;;0.52;0.52;;;;;;;10.28;59.75;99615.94;5310418;26;20095;-89
2023/11/07 00:28:00;;;;;;;9.73;2.20;;;;;;;10.33;59.75;99614.03;5313265;26;20091;-90
2023/11/07 00:30:25;;;;;;;0.35;0.35;;;;;;;10.30;59.75;99616.72;5307562;26;26391;-89
2023/11/07 00:32:53;;;;;;;1.17;0.88;;;;;;;10.26;59.75;99620.34;5307199;26;20099;-89
2023/11/07 00:35:22;;;;;;;2.50;2.30;;;;;;;10.28;59.74;99621.13;5307653;26;20091;-89
2023/11/07 00:37:49;;;;;;;0.10;0.10;;;;;;;10.32;59.75;99620.97;5307925;26;20064;-89
2023/11/07 00:40:14;;;;;;;0.82;0.82;;;;;;;10.36;59.75;99621.72;5326252;26;20868;-89
2023/11/07 00:42:40;;;;;;;2.60;1.27;;;;;;;10.40;59.75;99631.12;5326104;26;20079;-88
2023/11/07 00:45:06;;;;;;;2.85;2.37;;;;;;;10.44;59.76;99622.34;5326221;26;20105;-87
2023/11/07 00:47:31;;;;;;;1.12;0.52;;;;;;;10.58;59.77;99617.50;5308136;26;20060;-89
2023/11/07 00:50:00;;;;;;;9.82;3.47;;;;;;;10.56;59.77;99619.31;5326589;26;20114;-89
2023/11/07 00:52:25;;;;;;;4.95;0.77;;;;;;;10.57;59.77;99617.56;5308145;26;20318;-87
2023/11/07 00:54:51;;;;;;;1.42;1.33;;;;;;;10.52;59.76;99620.31;5326274;26;20130;-89
2023/11/07 00:57:16;;;;;;;0.05;0.05;;;;;;;10.58;59.77;99617.50;5308428;26;20363;-89
2023/11/07 00:59:42;;;;;;;1.25;1.00;;;;;;;10.72;59.77;99625.69;5307813;26;20068;-88
2023/11/07 01:02:07;;;;;;;0.52;0.32;;;;;;;10.71;59.77;99624.00;5307244;26;20071;-90
2023/11/07 01:04:32;;;;;;;0.03;0.03;;;;;;;10.60;59.76;99615.69;5307865;26;20610;-90
2023/11/07 01:06:58;;;;;;;1.37;0.82;;;;;;;10.63;59.77;99615.59;5325417;26;29972;-90
2023/11/07 01:09:23;;;;;;;0.55;0.55;;;;;;;10.64;59.77;99614.69;5307725;26;21461;-90
2023/11/07 01:11:49;;;;;;;0.20;0.15;;;;;;;10.68;59.76;99608.50;5307244;26;21217;-89
2023/11/07 01:14:14;;;;;;;0.00;0.00;;;;;;;10.79;59.77;99612.47;5307637;26;20124;-90
2023/11/07 01:16:39;;;;;;;0.32;0.30;;;;;;;10.93;59.79;99611.09;5307969;26;20116;-90
2023/11/07 01:19:05;;;;;;;0.40;0.40;;;;;;;10.92;59.79;99604.19;5307508;26;20076;-90
2023/11/07 01:21:30;;;;;;;7.22;1.23;;;;;;;10.95;59.79;99617.09;5308102;26;20134;-90
2023/11/07 01:23:56;;;;;;;0.30;0.30;;;;;;;10.86;59.78;99620.00;5307956;26;20086;-90
2023/11/07 01:26:22;;;;;;;0.43;0.37;;;;;;;10.87;59.78;99623.44;5307680;26;20125;-90
2023/11/07 01:28:47;;;;;;;0.70;0.43;;;;;;;10.77;59.78;99620.34;5307788;26;20113;-90
2023/11/07 01:31:13;;;;;;;1.67;0.60;;;;;;;10.76;59.77;99619.47;5307339;26;20083;-90
2023/11/07 01:33:38;;;;;;;0.62;0.62;;;;;;;10.85;59.78;99615.69;5308527;26;20064;-90
2023/11/07 01:36:13;;;;;;;0.52;0.52;;;;;;;10.81;59.77;99623.66;5307496;26;20124;-90
2023/11/07 01:38:38;;;;;;;1.25;1.15;;;;;;;11.11;59.79;99619.13;5289918;26;20070;-90
2023/11/07 01:41:04;;;;;;;0.20;0.20;;;;;;;10.91;59.78;99619.84;5307294;26;23684;-91
2023/11/07 01:43:31;;;;;;;0.20;0.20;;;;;;;10.98;59.78;99616.97;5289989;26;20555;-91
2023/11/07 01:45:59;;;;;;;0.47;0.47;;;;;;;10.92;59.79;99621.56;5307701;26;20114;-91
2023/11/07 01:48:25;;;;;;;0.00;0.00;;;;;;;10.94;59.79;99622.34;5308458;26;20104;-92
2023/11/07 01:50:51;;;;;;;0.70;0.70;;;;;;;10.64;59.77;99621.63;5308527;26;20070;-91
2023/11/07 01:53:16;;;;;;;0.25;0.20;;;;;;;10.69;59.78;99625.81;5307719;26;34001;-92
2023/11/07 01:55:42;;;;;;;0.55;0.55;;;;;;;10.57;59.77;99631.41;5308541;26;20060;-91
2023/11/07 01:58:10;;;;;;;0.00;0.00;;;;;;;10.40;59.76;99641.53;5310229;26;20065;-91
2023/11/07 02:00:37;;;;;;;1.52;1.40;;;;;;;10.39;59.75;99630.28;5317368;26;20035;-92
2023/11/07 02:03:03;;;;;;;0.22;0.22;;;;;;;10.36;59.75;99626.94;5308953;26;20064;-92
2023/11/07 02:05:37;;;;;;;0.22;0.22;;;;;;;10.50;59.76;99629.09;5307750;26;20170;-92
2023/11/07 02:08:05;;;;;;;0.00;0.00;;;;;;;10.29;59.74;99630.66;5307800;26;20056;-93
2023/11/07 02:10:37;;;;;;;0.50;0.50;;;;;;;10.39;59.75;99632.88;5308515;26;20483;-92
2023/11/07 02:13:02;;;;;;;0.40;0.40;;;;;;;10.37;59.75;99624.28;5308932;26;20131;-92
2023/11/07 02:15:31;;;;;;;0.30;0.30;;;;;;;10.34;59.75;99633.94;5307876;26;20057;-92
2023/11/07 02:17:57;;;;;;;0.10;0.10;;;;;;;10.29;59.74;99639.31;5308235;26;20071;-92
2023/11/07 02:20:36;;;;;;;0.25;0.17;;;;;;;10.31;59.74;99645.31;5289772;26;20051;-92
2023/11/07 02:23:09;;;;;;;0.10;0.10;;;;;;;10.11;59.74;99635.50;5310491;26;20063;-92
2023/11/07 02:25:38;;;;;;;0.45;0.45;;;;;;;10.11;59.74;99627.69;5290837;26;20070;-91
2023/11/07 02:28:07;;;;;;;0.28;0.28;;;;;;;10.11;59.74;99629.44;5308602;26;20025;-92
2023/11/07 02:30:46;;;;;;;6.32;0.65;;;;;;;10.23;59.74;99630.84;5308461;26;20710;-92
2023/11/07 02:33:11;;;;;;;0.00;0.00;;;;;;;10.07;59.74;99643.44;5290408;26;20129;-92
2023/11/07 02:35:38;;;;;;;0.45;0.45;;;;;;;10.07;59.73;99640.84;5307025;26;20084;-91
2023/11/07 02:38:03;;;;;;;0.32;0.32;;;;;;;10.07;59.73;99635.66;5307659;26;20071;-91
2023/11/07 02:40:29;;;;;;;0.62;0.62;;;;;;;9.94;59.74;99640.41;5307662;26;20060;-91
2023/11/07 02:42:54;;;;;;;0.15;0.15;;;;;;;10.05;59.74;99640.06;5306680;26;20162;-92
2023/11/07 02:45:20;;;;;;;0.08;0.08;;;;;;;9.98;59.73;99639.41;5307155;26;20163;-91
2023/11/07 02:47:45;;;;;;;0.20;0.20;;;;;;;9.98;59.73;99647.22;5307400;26;20060;-91
2023/11/07 02:50:11;;;;;;;0.10;0.05;;;;;;;9.97;59.73;99648.09;5307156;26;20080;-91
2023/11/07 02:52:37;;;;;;;0.40;0.13;;;;;;;9.82;59.72;99645.97;5306621;26;20121;-91
2023/11/07 02:55:02;;;;;;;0.70;0.15;;;;;;;9.72;59.71;99644.56;5307461;26;20081;-91
2023/11/07 02:57:28;;;;;;;0.00;0.00;;;;;;;9.60;59.71;99658.75;5307609;26;20122;-91
2023/11/07 02:59:53;;;;;;;0.00;0.00;;;;;;;9.72;59.71;99649.75;5308261;26;20099;-92
2023/11/07 03:02:19;;;;;;;0.00;0.00;;;;;;;9.49;59.71;99658.22;5308058;26;20079;-91
2023/11/07 03:04:45;;;;;;;1.35;0.80;;;;;;;9.75;59.71;99653.09;5308265;26;20060;-92
2023/11/07 03:07:10;;;;;;;0.00;0.00;;;;;;;9.58;59.71;99657.09;5308045;26;20484;-91
2023/11/07 03:09:36;;;;;;;0.30;0.22;;;;;;;9.56;59.70;99649.34;5308616;26;20099;-91
2023/11/07 03:12:02;;;;;;;0.00;0.00;;;;;;;9.46;59.70;99653.97;5308238;26;20071;-91
2023/11/07 03:14:28;;;;;;;0.15;0.15;;;;;;;9.53;59.71;99662.44;5308881;26;20425;-91
2023/11/07 03:16:54;;;;;;;0.20;0.20;;;;;;;9.57;59.71;99658.84;5308170;26;20100;-90
2023/11/07 03:19:20;;;;;;;0.28;0.28;;;;;;;9.56;59.71;99656.28;5289377;26;20120;-91
2023/11/07 03:21:45;;;;;;;0.00;0.00;;;;;;;9.38;59.69;99665.47;5309044;26;20072;-91
2023/11/07 03:24:11;;;;;;;0.28;0.13;;;;;;;9.36;59.70;99664.66;5309241;26;20101;-91
2023/11/07 03:26:36;;;;;;;0.00;0.00;;;;;;;9.25;59.68;99672.75;5308832;26;20349;-92
2023/11/07 03:29:01;;;;;;;0.00;0.00;;;;;;;9.25;59.68;99664.13;5308831;26;20079;-91
2023/11/07 03:31:27;;;;;;;0.10;0.10;;;;;;;9.12;59.69;99677.44;5314417;26;20073;-91
2023/11/07 03:33:52;;;;;;;0.17;0.17;;;;;;;9.05;59.69;99669.84;5332839;26;20396;-91
2023/11/07 03:36:18;;;;;;;0.10;0.10;;;;;;;8.88;59.66;99671.16;5307961;26;20124;-91
2023/11/07 03:38:43;;;;;;;0.20;0.13;;;;;;;8.88;59.66;99675.50;5308181;26;20095;-90
2023/11/07 03:41:11;;;;;;;0.82;0.50;;;;;;;8.90;59.68;99682.34;5307677;26;27366;-90
2023/11/07 03:43:37;;;;;;;2.35;0.60;;;;;;;8.83;59.67;99682.56;5289156;26;20082;-90
2023/11/07 03:46:02;;;;;;;0.15;0.15;;;;;;;8.83;59.67;99683.41;5308252;26;20056;-89
2023/11/07 03:48:28;;;;;;;0.43;0.43;;;;;;;8.74;59.67;99683.63;5308196;26;20057;-89
2023/11/07 03:50:54;;;;;;;0.03;0.03;;;;;;;8.63;59.66;99685.66;5307851;26;20424;-90
2023/11/07 03:53:20;;;;;;;0.08;0.08;;;;;;;8.71;59.66;99677.66;5308237;26;20163;-90
2023/11/07 03:55:45;;;;;;;0.15;0.15;;;;;;;8.55;59.65;99680.66;5289764;26;20101;-90
2023/11/07 03:58:11;;;;;;;0.00;0.00;;;;;;;8.69;59.66;99676.84;5308422;26;20061;-90
2023/11/07 04:00:36;;;;;;;0.10;0.10;;;;;;;8.53;59.66;99684.19;5307397;26;32996;-90
2023/11/07 04:03:01;;;;;;;1.40;1.30;;;;;;;8.39;59.64;99696.63;5308039;26;20060;-91
2023/11/07 04:05:28;;;;;;;0.10;0.10;;;;;;;8.55;59.65;99687.59;5307876;26;20080;-90
2023/11/07 04:07:55;;;;;;;0.00;0.00;;;;;;;8.45;59.65;99684.34;5308146;26;20123;-89
2023/11/07 04:10:21;;;;;;;0.00;0.00;;;;;;;8.31;59.64;99697.63;5289735;26;20068;-90
2023/11/07 04:12:47;;;;;;;0.20;0.20;;;;;;;8.32;59.64;99693.31;5307936;26;20097;-90
2023/11/07 04:15:12;;;;;;;0.15;0.15;;;;;;;8.21;59.63;99700.47;5307843;26;20056;-89
2023/11/07 04:17:39;;;;;;;0.40;0.40;;;;;;;8.40;59.64;99693.12;5308355;26;20100;-90
2023/11/07 04:20:09;;;;;;;0.30;0.30;;;;;;;8.29;59.63;99703.75;5308481;26;20727;-91
2023/11/07 04:22:35;;;;;;;2.00;1.00;;;;;;;8.16;59.63;99700.56;5291289;26;20065;-90
2023/11/07 04:25:01;;;;;;;0.10;0.10;;;;;;;8.11;59.63;99701.56;5307802;26;20185;-90
2023/11/07 04:27:26;;;;;;;0.00;0.00;;;;;;;8.09;59.63;99706.78;5308184;26;20052;-90
2023/11/07 04:29:52;;;;;;;0.00;0.00;;;;;;;8.24;59.63;99703.84;5307961;26;20098;-90
2023/11/07 04:32:17;;;;;;;0.62;0.10;;;;;;;8.36;59.63;99705.34;5307803;26;20068;-90
2023/11/07 04:34:43;;;;;;;0.13;0.13;;;;;;;8.01;59.63;99711.28;5308142;26;20065;-90
2023/11/07 04:37:09;;;;;;;0.10;0.10;;;;;;;7.86;59.61;99716.81;5308231;26;20056;-90
2023/11/07 04:39:34;;;;;;;0.00;0.00;;;;;;;7.86;59.61;99709.91;5307660;26;20440;-90
2023/11/07 04:42:01;;;;;;;0.00;0.00;;;;;;;7.86;59.62;99711.63;5307879;26;20157;-90
2023/11/07 04:44:27;;;;;;;0.13;0.13;;;;;;;7.92;59.62;99706.31;5307930;26;20114;-91
2023/11/07 04:46:52;;;;;;;0.00;0.00;;;;;;;8.00;59.62;99707.84;5308008;26;20080;-89
2023/11/07 04:49:18;;;;;;;0.10;0.10;;;;;;;7.94;59.62;99705.38;5307900;26;20080;-89
2023/11/07 04:51:43;;;;;;;0.00;0.00;;;;;;;7.90;59.61;99708.09;5306656;26;20090;-90
2023/11/07 04:54:09;;;;;;;0.00;0.00;;;;;;;7.80;59.61;99706.56;5308246;26;20060;-89
2023/11/07 04:56:34;;;;;;;0.00;0.00;;;;;;;8.04;59.62;99716.38;5308151;26;20071;-89
2023/11/07 04:59:00;;;;;;;0.00;0.00;;;;;;;7.90;59.61;99713.25;5307862;26;21470;-90
2023/11/07 05:01:25;;;;;;;0.00;0.00;;;;;;;7.94;59.62;99714.91;5326353;26;20085;-90
2023/11/07 05:03:51;;;;;;;0.00;0.00;;;;;;;7.83;59.61;99711.69;5313659;26;20068;-90
2023/11/07 05:06:19;;;;;;;0.20;0.20;;;;;;;7.66;59.60;99718.09;5309860;26;24860;-90
2023/11/07 05:08:45;;;;;;;0.30;0.30;;;;;;;7.60;59.59;99717.38;5308134;26;20068;-90
2023/11/07 05:11:12;;;;;;;0.00;0.00;;;;;;;7.51;59.59;99717.53;5289603;26;20837;-89
2023/11/07 05:13:38;;;;;;;0.00;0.00;;;;;;;7.57;59.60;99718.28;5308017;26;20131;-90
2023/11/07 05:16:04;;;;;;;0.00;0.00;;;;;;;7.47;59.59;99718.47;5308159;26;20063;-89
2023/11/07 05:18:30;;;;;;;1.75;0.25;;;;;;;7.54;59.59;99715.72;5308211;26;20061;-89
2023/11/07 05:20:55;;;;;;;1.45;0.85;;;;;;;7.53;59.59;99711.44;5307723;26;20510;-89
2023/11/07 05:23:22;;;;;;;0.08;0.03;;;;;;;7.59;59.60;99713.94;5307277;26;24581;-89
2023/11/07 05:25:48;;;;;;;0.00;0.00;;;;;;;7.49;59.60;99709.78;5308307;26;20061;-90
2023/11/07 05:28:13;;;;;;;0.47;0.47;;;;;;;7.76;59.61;99720.47;5307570;26;20086;-90
2023/11/07 05:30:38;;;;;;;0.10;0.10;;;;;;;7.77;59.61;99717.84;5307565;26;20060;-89
2023/11/07 05:33:05;;;;;;;0.00;0.00;;;;;;;7.61;59.59;99717.34;5326303;26;20060;-90
2023/11/07 05:35:31;;;;;;;0.75;0.62;;;;;;;7.50;59.59;99718.41;5308060;26;20729;-90
2023/11/07 05:37:56;;;;;;;0.85;0.37;;;;;;;7.46;59.59;99709.00;5308132;26;20128;-91
2023/11/07 05:40:23;;;;;;;0.00;0.00;;;;;;;7.35;59.58;99715.25;5307664;26;20060;-92
2023/11/07 05:42:52;;;;;;;0.00;0.00;;;;;;;7.41;59.59;99714.28;5308057;26;20116;-91
2023/11/07 05:45:17;;;;;;;0.65;0.60;;;;;;;7.31;59.58;99723.09;5307507;26;20060;-92
2023/11/07 05:47:44;;;;;;;1.45;1.15;;;;;;;7.44;59.59;99723.72;5307420;26;20363;-92
2023/11/07 05:50:10;;;;;;;0.10;0.10;;;;;;;7.59;59.59;99737.22;5307973;26;20064;-91
2023/11/07 05:52:35;;;;;;;0.00;0.00;;;;;;;7.51;59.60;99736.50;5308020;26;20056;-91
2023/11/07 05:55:02;;;;;;;0.00;0.00;;;;;;;7.51;59.59;99746.88;5306414;26;20087;-91
2023/11/07 05:57:28;;;;;;;0.00;0.00;;;;;;;7.49;59.60;99740.03;5307409;26;20072;-89
2023/11/07 05:59:53;;;;;;;0.10;0.10;;;;;;;7.45;59.59;99749.59;5306650;26;20085;-91
2023/11/07 06:02:19;;;;;;;0.22;0.22;;;;;;;7.59;59.59;99749.34;5307192;26;20109;-91
2023/11/07 06:04:46;;;;;;;0.00;0.00;;;;;;;7.56;59.60;99760.59;5306813;26;29076;-90
2023/11/07 06:07:11;;;;;;;1.12;1.08;;;;;;;7.56;59.60;99759.72;5307339;26;20079;-90
2023/11/07 06:09:37;;;;;;;0.52;0.52;;;;;;;7.49;59.59;99768.50;5307463;26;20120;-91
2023/11/07 06:12:02;;;;;;;0.00;0.00;;;;;;;7.49;59.59;99771.94;5306406;26;29881;-91
2023/11/07 06:14:28;;;;;;;0.62;0.62;;;;;;;7.60;59.60;99772.63;5307111;26;20048;-90
2023/11/07 06:16:53;;;;;;;0.55;0.55;;;;;;;7.82;59.61;99767.88;5307522;26;20112;-91
2023/11/07 06:19:20;;;;;;;0.00;0.00;;;;;;;7.72;59.60;99768.91;5307386;26;20462;-90
2023/11/07 06:21:46;;;;;;;0.57;0.57;;;;;;;7.67;59.60;99770.75;5288882;26;20031;-91
2023/11/07 06:24:12;;;;;;;0.00;0.00;;;;;;;7.68;59.60;99769.88;5288976;26;20063;-91
2023/11/07 06:26:37;;;;;;;0.35;0.35;;;;;;;7.65;59.60;99773.37;5307241;26;20330;-90
2023/11/07 06:29:04;;;;;;;0.10;0.10;;;;;;;7.78;59.61;99783.47;5307437;26;20116;-91
2023/11/07 06:31:29;;;;;;;0.00;0.00;;;;;;;7.89;59.62;99782.38;5307946;26;20067;-91
2023/11/07 06:33:55;;;;;;;0.10;0.10;;;;;;;7.90;59.61;99783.25;5313593;26;20076;-90
2023/11/07 06:36:20;;;;;;;0.00;0.00;;;;;;;8.00;59.62;99787.34;5314481;26;20171;-91
2023/11/07 06:38:46;;;;;;;0.00;0.00;;;;;;;8.00;59.62;99787.34;5308365;26;20117;-91
2023/11/07 06:41:11;;;;;;;2.28;0.45;;;;;;;8.18;59.63;99784.34;5308584;26;20404;-91
2023/11/07 06:43:38;;;;;;;0.75;0.75;;;;;;;8.41;59.64;99789.06;5290698;26;20146;-92
2023/11/07 06:46:03;;;;;;;1.95;0.98;;;;;;;8.39;59.65;99784.81;5308756;26;20071;-91
2023/11/07 06:48:29;;;;;;;0.00;0.00;;;;;;;8.40;59.64;99782.19;5308243;26;20064;-91
2023/11/07 06:50:56;;;;;;;0.80;0.45;;;;;;;8.70;59.66;99782.34;5308446;26;20087;-91
2023/11/07 06:53:21;;;;;;;0.20;0.10;;;;;;;8.81;59.66;99781.22;5290060;26;20060;-92
2023/11/07 06:55:46;;;;;;;0.00;0.00;;;;;;;8.80;59.65;99779.50;5307295;26;20416;-92
2023/11/07 06:58:12;;;;;;;0.50;0.50;;;;;;;9.02;59.67;99774.66;5306921;26;20080;-91
2023/11/07 07:00:38;;;;;;;0.35;0.35;;;;;;;9.09;59.68;99775.34;5306365;26;29744;-91
2023/11/07 07:03:04;;;;;;;0.00;0.00;;;;;;;8.88;59.66;99781.91;5307427;26;20099;-91
2023/11/07 07:05:30;;;;;;;4.40;0.35;;;;;;;8.73;59.66;99782.28;5288829;26;20413;-91
2023/11/07 07:07:56;;;;;;;0.00;0.00;;;;;;;8.96;59.67;99792.09;5307267;26;20059;-92
2023/11/07 07:10:21;;;;;;;0.50;0.45;;;;;;;8.98;59.68;99790.31;5307116;26;20082;-91
2023/11/07 07:12:47;;;;;;;0.00;0.00;;;;;;;8.86;59.66;99799.28;5307150;26;20393;-92
2023/11/07 07:15:12;;;;;;;0.85;0.85;;;;;;;9.21;59.69;99794.03;5307153;26;20132;-92
2023/11/07 07:17:38;;;;;;;0.00;0.00;;;;;;;9.20;59.69;99797.53;5306968;26;20067;-92
2023/11/07 07:20:11;;;;;;;0.00;0.00;;;;;;;9.51;59.71;99802.78;5306999;26;20139;-91
2023/11/07 07:22:42;;;;;;;0.25;0.25;;;;;;;9.55;59.70;99808.75;5309434;26;20060;-91
2023/11/07 07:25:08;;;;;;;1.00;0.80;;;;;;;9.55;59.70;99800.97;5289614;26;20075;-91
2023/11/07 07:27:34;;;;;;;0.37;0.37;;;;;;;9.40;59.69;99797.00;5288509;26;20067;-91
2023/11/07 07:30:01;;;;;;;0.10;0.10;;;;;;;9.78;59.71;99787.34;5307119;26;20070;-92
2023/11/07 07:32:26;;;;;;;9.90;1.05;;;;;;;9.90;59.73;99788.72;5288778;26;20063;-91
2023/11/07 07:34:52;;;;;;;0.73;0.37;;;;;;;9.95;59.73;99803.31;5306744;26;20076;-92
2023/11/07 07:37:20;;;;;;;3.50;2.05;;;;;;;10.03;59.74;99801.34;5307045;26;20096;-92
2023/11/07 07:39:49;;;;;;;0.65;0.65;;;;;;;10.36;59.75;99793.44;5307324;26;20408;-92
2023/11/07 07:42:17;;;;;;;0.52;0.52;;;;;;;10.60;59.76;99792.69;5306809;26;20421;-91
2023/11/07 07:44:42;;;;;;;0.00;0.00;;;;;;;10.64;59.77;99793.44;5307300;26;20684;-91
2023/11/07 07:47:08;;;;;;;0.00;0.00;;;;;;;10.93;59.79;99788.19;5306878;26;20063;-91
2023/11/07 07:49:35;;;;;;;0.10;0.10;;;;;;;11.11;59.79;99786.69;5306261;26;24940;-92
2023/11/07 07:52:01;;;;;;;0.80;0.80;;;;;;;11.18;59.79;99795.19;5307554;26;20056;-92
2023/11/07 07:54:28;;;;;;;0.30;0.30;;;;;;;11.34;59.80;99791.12;5306671;26;20118;-92
2023/11/07 07:56:54;;;;;;;0.30;0.30;;;;;;;11.35;59.81;99790.22;5307132;26;20072;-92
2023/11/07 07:59:23;;;;;;;0.10;0.10;;;;;;;11.26;59.80;99793.16;5288645;26;20064;-91
2023/11/07 08:01:57;;;;;;;0.45;0.45;;;;;;;11.23;59.80;99794.09;5307414;26;20087;-92
2023/11/07 08:04:28;;;;;;;0.20;0.20;;;;;;;11.58;59.81;99792.88;5297534;26;20037;-92
2023/11/07 08:06:54;;;;;;;0.13;0.13;;;;;;;11.82;59.82;99796.38;5297272;26;20064;-91
2023/11/07 08:09:19;;;;;;;0.10;0.10;;;;;;;11.86;59.83;99792.78;5306769;26;20142;-92
2023/11/07 08:11:47;;;;;;;0.40;0.40;;;;;;;11.99;59.84;99790.56;5306624;26;20049;-91
2023/11/07 08:14:14;;;;;;;1.65;0.55;;;;;;;12.31;59.86;99791.97;5307202;26;20705;-91
2023/11/07 08:16:40;;;;;;;0.20;0.20;;;;;;;12.38;59.86;99793.44;5307073;26;20068;-91
2023/11/07 08:19:06;;;;;;;1.00;0.85;;;;;;;12.50;59.86;99794.69;5307178;26;20053;-91
2023/11/07 08:21:31;;;;;;;0.00;0.00;;;;;;;12.62;59.87;99790.78;5306975;26;20440;-91
2023/11/07 08:23:57;;;;;;;0.55;0.55;;;;;;;12.79;59.88;99790.97;5306096;26;28263;-91
2023/11/07 08:26:24;;;;;;;0.10;0.10;;;;;;;12.67;59.88;99792.28;5306566;26;20082;-91
2023/11/07 08:28:49;;;;;;;0.40;0.40;;;;;;;12.85;59.88;99796.78;5307106;26;20074;-91
2023/11/07 08:31:14;;;;;;;0.57;0.30;;;;;;;12.81;59.88;99796.97;5306351;26;20092;-91
2023/11/07 08:33:42;;;;;;;0.75;0.52;;;;;;;12.87;59.88;99801.94;5306129;26;28621;-90
2023/11/07 08:36:09;;;;;;;0.20;0.20;;;;;;;13.01;59.89;99798.75;5307273;26;20099;-91
2023/11/07 08:38:37;;;;;;;2.20;1.45;;;;;;;13.11;59.90;99794.84;5307271;26;20059;-90
2023/11/07 08:41:02;;;;;;;0.00;0.00;;;;;;;13.23;59.90;99801.34;5288845;26;20701;-91
2023/11/07 08:43:28;;;;;;;1.37;0.82;;;;;;;13.30;59.90;99798.44;5306716;26;20064;-91
2023/11/07 08:45:54;;;;;;;0.28;0.10;;;;;;;13.27;59.90;99802.94;5307005;26;20704;-91
2023/11/07 08:48:20;;;;;;;0.00;0.00;;;;;;;13.40;59.91;99807.56;5306524;26;20075;-92
2023/11/07 08:50:45;;;;;;;0.00;0.00;;;;;;;13.43;59.92;99811.81;5306828;26;20058;-91
2023/11/07 08:53:12;;;;;;;0.30;0.30;;;;;;;13.37;59.92;99817.31;5306752;26;20123;-91
2023/11/07 08:55:38;;;;;;;0.00;0.00;;;;;;;13.51;59.92;99801.91;5306670;26;20423;-91
2023/11/07 08:58:05;;;;;;;0.03;0.03;;;;;;;13.50;59.92;99806.28;5306629;26;20618;-90
2023/11/07 09:00:32;;;;;;;0.17;0.10;;;;;;;13.64;59.92;99800.44;5306793;26;20067;-92
2023/11/07 09:02:57;;;;;;;0.00;0.00;;;;;;;13.96;59.94;99795.53;5306803;26;20076;-90
2023/11/07 09:05:24;;;;;;;1.02;0.77;;;;;;;13.82;59.94;99802.25;5306389;26;20079;-90
2023/11/07 09:07:50;;;;;;;0.00;0.00;;;;;;;13.82;59.94;99797.03;5325311;26;20056;-91
2023/11/07 09:10:15;;;;;;;2.33;1.67;;;;;;;13.92;59.94;99805.28;5306551;26;20078;-91
2023/11/07 09:12:41;;;;;;;0.60;0.43;;;;;;;14.13;59.95;99787.78;5306239;26;20530;-91
2023/11/07 09:15:10;;;;;;;0.20;0.13;;;;;;;14.16;59.95;99797.25;5306880;26;20129;-91
2023/11/07 09:17:36;;;;;;;0.53;0.47;;;;;;;14.31;59.96;99793.94;5289042;26;20075;-90
2023/11/07 09:20:02;;;;;;;0.00;0.00;;;;;;;14.29;59.96;99783.53;5306298;26;20048;-90
2023/11/07 09:22:28;;;;;;;1.55;0.30;;;;;;;14.48;59.98;99783.56;5306794;26;20078;-90
2023/11/07 09:24:54;;;;;;;3.42;1.20;;;;;;;14.42;59.97;99784.66;5306527;26;20081;-90
2023/11/07 09:27:19;;;;;;;0.00;0.00;;;;;;;14.16;59.95;99777.16;5306276;26;20067;-90
2023/11/07 09:29:46;;;;;;;0.32;0.32;;;;;;;14.36;59.97;99786.72;5306425;26;20106;-91
2023/11/07 09:32:12;;;;;;;0.68;0.68;;;;;;;14.43;59.97;99778.56;5306814;26;20425;-90
2023/11/07 09:34:40;;;;;;;0.77;0.77;;;;;;;14.56;59.98;99783.19;5312327;26;20055;-89
2023/11/07 09:37:07;;;;;;;0.00;0.00;;;;;;;14.60;59.98;99784.72;5314932;26;20759;-90
2023/11/07 09:39:33;;;;;;;2.12;0.37;;;;;;;14.88;59.99;99792.94;5306487;26;20053;-90
2023/11/07 09:41:59;;;;;;;0.00;0.00;;;;;;;14.95;60.00;99781.25;5306397;26;20113;-90
2023/11/07 09:44:24;;;;;;;0.17;0.17;;;;;;;15.14;60.00;99783.81;5306083;26;20333;-89
2023/11/07 09:46:50;;;;;;;0.20;0.20;;;;;;;15.27;60.02;99773.56;5306307;26;20088;-90
2023/11/07 09:49:15;;;;;;;3.60;1.25;;;;;;;15.36;60.01;99780.94;5306174;26;20109;-89
2023/11/07 09:51:40;;;;;;;0.00;0.00;;;;;;;15.40;60.02;99779.87;5306063;26;20105;-90
2023/11/07 09:54:08;;;;;;;0.00;0.00;;;;;;;15.21;60.00;99784.34;5306051;26;20131;-90
2023/11/07 09:56:39;;;;;;;0.00;0.00;;;;;;;15.46;60.02;99778.72;5306630;26;20063;-90
2023/11/07 09:59:41;;;;;;;15.93;0.52;;;;;;;15.53;60.02;99778.31;5287495;26;20056;-90
2023/11/07 10:02:07;;;;;;;0.00;0.00;;;;;;;15.57;60.03;99782.47;5321007;26;20060;-90
2023/11/07 10:04:34;;;;;;;0.20;0.20;;;;;;;15.56;60.03;99788.63;5305686;26;20083;-91
2023/11/07 10:06:59;;;;;;;1.00;0.62;;;;;;;15.48;60.03;99787.34;5287761;26;20071;-90
2023/11/07 10:09:26;;;;;;;0.47;0.47;;;;;;;15.43;60.02;99787.59;5306907;26;20112;-90
2023/11/07 10:11:53;;;;;;;2.47;1.10;;;;;;;15.53;60.02;99774.84;5306961;26;20073;-89
2023/11/07 10:14:21;;;;;;;0.05;0.05;;;;;;;15.54;60.02;99785.25;5307071;26;20068;-90
2023/11/07 10:16:51;;;;;;;0.57;0.40;;;;;;;15.70;60.03;99776.62;5288951;26;20076;-90
2023/11/07 10:19:21;;;;;;;0.08;0.08;;;;;;;15.57;60.03;99781.59;5289072;26;20131;-89
2023/11/07 10:21:46;;;;;;;0.30;0.30;;;;;;;15.50;60.03;99782.88;5288855;26;20064;-90
2023/11/07 10:24:12;;;;;;;0.75;0.62;;;;;;;15.70;60.04;99780.09;5306704;26;20115;-90
2023/11/07 10:27:02;;;;;;;0.47;0.47;;;;;;;15.85;60.04;99774.03;5307250;26;20080;-90
2023/11/07 10:29:30;;;;;;;0.65;0.65;;;;;;;15.93;60.05;99768.38;5307931;26;20060;-90
2023/11/07 10:32:08;;;;;;;0.10;0.10;;;;;;;15.85;60.04;99773.16;5307368;26;20080;-90
2023/11/07 10:34:34;;;;;;;0.98;0.98;;;;;;;15.91;60.04;99762.34;5290128;26;20431;-90
2023/11/07 10:37:00;;;;;;;0.00;0.00;;;;;;;15.96;60.05;99753.31;5307181;26;20056;-90
2023/11/07 10:39:26;;;;;;;0.88;0.47;;;;;;;15.93;60.06;99753.47;5307147;26;20069;-90
2023/11/07 10:41:55;;;;;;;3.53;0.85;;;;;;;16.07;60.05;99754.47;5307125;26;20125;-90
2023/11/07 10:44:29;;;;;;;0.28;0.28;;;;;;;16.08;60.06;99758.81;5306696;26;20074;-90
2023/11/07 10:46:57;;;;;;;0.17;0.17;;;;;;;16.00;60.05;99761.84;5307065;26;20070;-90
2023/11/07 10:49:22;;;;;;;1.60;0.80;;;;;;;15.99;60.05;99765.41;5289155;26;20448;-90
2023/11/07 10:51:48;;;;;;;0.90;0.90;;;;;;;16.30;60.07;99764.56;5306519;26;20060;-90
2023/11/07 10:54:13;;;;;;;1.27;0.80;;;;;;;16.31;60.07;99770.69;5306925;26;20108;-90
2023/11/07 10:56:41;;;;;;;0.60;0.60;;;;;;;16.48;60.09;99758.31;5306683;26;20359;-90
2023/11/07 10:59:14;;;;;;;0.10;0.10;;;;;;;16.39;60.07;99765.88;5306502;26;20118;-90
2023/11/07 11:01:40;;;;;;;0.13;0.13;;;;;;;16.51;60.08;99759.91;5289313;26;20083;-90
2023/11/07 11:04:08;;;;;;;1.42;0.98;;;;;;;16.42;60.08;99760.44;5307754;26;20107;-89
2023/11/07 11:06:34;;;;;;;0.10;0.10;;;;;;;16.44;60.08;99761.19;5300950;26;20059;-90
2023/11/07 11:09:00;;;;;;;0.20;0.20;;;;;;;16.45;60.08;99770.78;5325562;26;20060;-89
2023/11/07 11:11:26;;;;;;;1.52;0.95;;;;;;;16.56;60.09;99773.63;5307019;26;20064;-90
2023/11/07 11:13:52;;;;;;;1.20;1.05;;;;;;;16.45;60.08;99768.16;5306564;26;20064;-90
2023/11/07 11:16:17;;;;;;;0.37;0.37;;;;;;;16.37;60.08;99779.09;5307412;26;20385;-90
2023/11/07 11:19:00;;;;;;;2.37;2.17;;;;;;;16.27;60.08;99768.22;5324769;26;20056;-90
2023/11/07 11:21:31;;;;;;;0.17;0.17;;;;;;;16.31;60.07;99765.41;5290374;26;20080;-90
2023/11/07 11:24:19;;;;;;;0.20;0.20;;;;;;;16.05;60.06;99765.06;5288907;26;20047;-89
2023/11/07 11:26:52;;;;;;;0.17;0.17;;;;;;;15.88;60.05;99759.91;5325234;26;20048;-90
2023/11/07 11:29:28;;;;;;;2.42;1.08;;;;;;;15.78;60.04;99749.03;5289118;26;20055;-89
2023/11/07 11:31:54;;;;;;;1.02;0.95;;;;;;;15.53;60.03;99743.34;5289371;26;20060;-89
2023/11/07 11:34:25;;;;;;;0.35;0.35;;;;;;;15.45;60.02;99746.38;5306935;26;20100;-90